KLIT

Bill and Hillary Clinton National / Adams Field Airport

Little Rock, Arkansas, USA
KLIT 210813Z 2108/2206 21005KT P6SM VCSH SCT025 BKN050 TEMPO 2108/2112 3SM BR BKN020 FM211200 24005KT P6SM VCSH BKN020 BKN250 FM211400 24006KT P6SM SCT030 BKN100 FM211800 26008G15KT P6SM VCTS BKN050CB OVC250
Issued Valid From Valid To
Jun-21 @ 08:13 UTC
(2 hours ago)
Jun-21 @ 08:00 UTC
(2 hours ago)
Jun-22 @ 06:00 UTC
(in 20 hours)
Jun-21 @ 08:00 to Jun-21 @ 12:00
KLIT 210813Z 2108/2206 21005KT P6SM VCSH SCT025 BKN050
Wind Visibility Clouds
210° at 5 knots Greater than 6 miles
  • Scattered at 2,500' AGL
  • Broken at 5,000' AGL
Temporary Jun-21 @ 08:00 to Jun-21 @ 12:00
TEMPO 2108/2112 3SM BR BKN020
Visibility Clouds Conditions
3 miles
  • Broken at 2,000' AGL
  • Mist
From Jun-21 @ 12:00 to Jun-21 @ 14:00
FM211200 24005KT P6SM VCSH BKN020 BKN250
Wind Visibility Clouds
240° at 5 knots Greater than 6 miles
  • Broken at 2,000' AGL
  • Broken at 25,000' AGL
From Jun-21 @ 14:00 to Jun-21 @ 18:00
FM211400 24006KT P6SM SCT030 BKN100
Wind Visibility Clouds
240° at 6 knots Greater than 6 miles
  • Scattered at 3,000' AGL
  • Broken at 10,000' AGL
From Jun-21 @ 18:00 to Jun-22 @ 06:00
FM211800 26008G15KT P6SM VCTS BKN050CB OVC250
Wind Visibility Clouds Conditions
260° at 8 knots
 Gusting to 15 knots
Greater than 6 miles
  • Broken at 5,000' AGL
  • Overcast at 25,000' AGL
  • Area Thunderstorm
KLIT 210813Z 2108/2206 21005KT P6SM VCSH SCT025 BKN050 TEMPO 2108/2112 3SM BR BKN020 FM211200 24005KT P6SM VCSH BKN020 BKN250 FM211400 24006KT P6SM SCT030 BKN100 FM211800 26008G15KT P6SM VCTS BKN050CB OVC250
Issued Jun-21 @ 08:13 UTC
(2 hours ago)
Valid From Jun-21 @ 08:00 UTC
(2 hours ago)
Valid To Jun-22 @ 06:00 UTC
(in 20 hours)
Jun-21 @ 08:00 - Jun-21 @ 12:00
Wind Visibility
210° at 5 knots Greater than 6 miles
Clouds
  • Scattered at 2,500' AGL
  • Broken at 5,000' AGL
Temporary Jun-21 @ 08:00 - Jun-21 @ 12:00
Clouds
  • Broken at 2,000' AGL
Conditions
  • Mist
From Jun-21 @ 12:00 - Jun-21 @ 14:00
Wind Visibility
240° at 5 knots Greater than 6 miles
Clouds
  • Broken at 2,000' AGL
  • Broken at 25,000' AGL
From Jun-21 @ 14:00 - Jun-21 @ 18:00
Wind Visibility
240° at 6 knots Greater than 6 miles
Clouds
  • Scattered at 3,000' AGL
  • Broken at 10,000' AGL
From Jun-21 @ 18:00 - Jun-22 @ 06:00
Wind Visibility
260° at 8 knots
 Gusting to 15 knots
Greater than 6 miles
Clouds
  • Broken at 5,000' AGL
  • Overcast at 25,000' AGL
Conditions
  • Area Thunderstorm